createdAt,value
2023-03-17T00:01:16.485Z,101028.31
2023-03-17T00:03:44.615Z,101031.63
2023-03-17T00:06:17.745Z,101016.06
2023-03-17T00:08:46.267Z,101001.03
2023-03-17T00:11:15.064Z,101006.63
2023-03-17T00:13:42.075Z,101015.88
2023-03-17T00:16:16.894Z,101030.28
2023-03-17T00:18:44.668Z,101025.63
2023-03-17T00:21:16.716Z,101026.44
2023-03-17T00:23:50.725Z,101020.34
2023-03-17T00:26:18.004Z,101015.41
2023-03-17T00:28:44.808Z,101003.66
2023-03-17T00:31:21.172Z,101008.78
2023-03-17T00:33:49.401Z,101003.16
2023-03-17T00:36:25.977Z,100997.88
2023-03-17T00:38:52.739Z,101004.47
2023-03-17T00:41:19.731Z,101004.31
2023-03-17T00:43:46.269Z,101003.47
2023-03-17T00:46:17.710Z,101003.47
2023-03-17T00:48:45.776Z,101000.16
2023-03-17T00:51:13.039Z,100997.19
2023-03-17T00:53:39.831Z,101003.28
2023-03-17T00:56:14.488Z,101002.97
2023-03-17T00:58:42.041Z,101006.75
2023-03-17T01:01:09.080Z,101004.59
2023-03-17T01:03:35.627Z,100995.81
2023-03-17T01:06:04.640Z,100978.16
2023-03-17T01:08:31.681Z,100970.88
2023-03-17T01:10:59.541Z,100962.28
2023-03-17T01:13:26.589Z,100964.59
2023-03-17T01:15:53.185Z,100951.53
2023-03-17T01:18:22.703Z,100959.44
2023-03-17T01:20:50.252Z,100980.91
2023-03-17T01:23:17.679Z,100985.06
2023-03-17T01:25:44.865Z,100980.59
2023-03-17T01:28:16.834Z,100985.88
2023-03-17T01:30:45.110Z,100980.59
2023-03-17T01:33:13.133Z,100989.50
2023-03-17T01:35:41.330Z,100971.53
2023-03-17T01:38:08.601Z,100977.94
2023-03-17T01:40:37.538Z,100974.31
2023-03-17T01:43:08.168Z,100977.44
2023-03-17T01:46:12.362Z,100966.34
2023-03-17T01:48:45.769Z,100958.09
2023-03-17T01:51:17.710Z,100955.09
2023-03-17T01:53:48.195Z,100957.72
2023-03-17T01:56:16.915Z,100974.41
2023-03-17T01:58:46.687Z,100964.97
2023-03-17T02:01:14.218Z,100960.00
2023-03-17T02:03:42.117Z,100951.06
2023-03-17T02:06:09.557Z,100949.06
2023-03-17T02:08:36.391Z,100935.50
2023-03-17T02:11:05.040Z,100939.81
2023-03-17T02:13:32.958Z,100933.19
2023-03-17T02:15:59.520Z,100932.38
2023-03-17T02:18:25.985Z,100933.19
2023-03-17T02:21:27.237Z,100929.56
2023-03-17T02:23:53.713Z,100925.94
2023-03-17T02:26:22.188Z,100924.47
2023-03-17T02:28:49.195Z,100936.16
2023-03-17T02:31:16.469Z,100932.53
2023-03-17T02:33:43.400Z,100926.44
2023-03-17T02:36:10.952Z,100926.75
2023-03-17T02:38:37.914Z,100925.25
2023-03-17T02:41:06.358Z,100937.31
2023-03-17T02:43:33.198Z,100931.19
2023-03-17T02:45:59.698Z,100920.81
2023-03-17T02:48:26.350Z,100920.28
2023-03-17T02:50:52.897Z,100916.81
2023-03-17T02:53:19.826Z,100914.31
2023-03-17T02:55:46.335Z,100917.63
2023-03-17T02:58:12.880Z,100916.31
2023-03-17T03:00:40.458Z,100927.38
2023-03-17T03:03:06.955Z,100925.25
2023-03-17T03:05:33.475Z,100927.06
2023-03-17T03:07:59.909Z,100924.25
2023-03-17T03:10:27.074Z,100924.25
2023-03-17T03:12:53.629Z,100930.88
2023-03-17T03:15:20.922Z,100921.97
2023-03-17T03:17:47.381Z,100935.16
2023-03-17T03:20:14.623Z,100921.66
2023-03-17T03:22:41.159Z,100916.06
2023-03-17T03:25:08.733Z,100921.00
2023-03-17T03:27:35.219Z,100903.38
2023-03-17T03:30:02.045Z,100924.00
2023-03-17T03:32:28.568Z,100912.31
2023-03-17T03:34:55.094Z,100922.06
2023-03-17T03:37:21.762Z,100925.72
2023-03-17T03:39:48.300Z,100919.44
2023-03-17T03:42:14.764Z,100932.66
2023-03-17T03:44:41.253Z,100935.50
2023-03-17T03:47:08.292Z,100934.03
2023-03-17T03:49:34.857Z,100925.47
2023-03-17T03:52:01.434Z,100925.47
2023-03-17T03:54:27.904Z,100932.94
2023-03-17T03:56:54.325Z,100931.75
2023-03-17T03:59:20.959Z,100922.69
2023-03-17T04:01:47.456Z,100924.69
2023-03-17T04:04:13.949Z,100919.22
2023-03-17T04:06:40.459Z,100922.19
2023-03-17T04:09:07.517Z,100917.91
2023-03-17T04:11:34.029Z,100922.53
2023-03-17T04:14:00.988Z,100932.28
2023-03-17T04:16:28.209Z,100927.00
2023-03-17T04:18:54.854Z,100930.78
2023-03-17T04:21:21.718Z,100948.31
2023-03-17T04:23:48.190Z,100942.03
2023-03-17T04:26:14.778Z,100933.09
2023-03-17T04:28:41.242Z,100933.28
2023-03-17T04:31:10.752Z,100934.44
2023-03-17T04:33:37.218Z,100926.16
2023-03-17T04:36:04.577Z,100939.06
2023-03-17T04:38:31.027Z,100931.78
2023-03-17T04:40:57.502Z,100930.47
2023-03-17T04:43:24.502Z,100929.81
2023-03-17T04:48:17.669Z,100946.34
2023-03-17T04:50:45.494Z,100948.13
2023-03-17T04:53:11.955Z,100944.34
2023-03-17T04:55:38.461Z,100926.31
2023-03-17T04:58:04.912Z,100943.69
2023-03-17T05:00:32.334Z,100936.09
2023-03-17T05:02:58.948Z,100940.19
2023-03-17T05:05:25.448Z,100932.94
2023-03-17T05:07:51.967Z,100933.78
2023-03-17T05:10:18.483Z,100938.22
2023-03-17T05:12:45.348Z,100941.53
2023-03-17T05:15:11.943Z,100942.19
2023-03-17T05:17:38.420Z,100949.63
2023-03-17T05:20:05.707Z,100946.00
2023-03-17T05:22:32.212Z,100939.06
2023-03-17T05:24:58.861Z,100938.06
2023-03-17T05:27:26.325Z,100938.56
2023-03-17T05:29:52.768Z,100940.53
2023-03-17T05:32:19.817Z,100922.53
2023-03-17T05:34:46.646Z,100927.66
2023-03-17T05:37:14.136Z,100932.94
2023-03-17T05:39:40.627Z,100926.16
2023-03-17T05:42:08.496Z,100925.84
2023-03-17T05:44:35.527Z,100926.16
2023-03-17T05:47:02.048Z,100918.06
2023-03-17T05:49:28.723Z,100907.50
2023-03-17T05:51:55.592Z,100893.78
2023-03-17T05:54:22.912Z,100890.34
2023-03-17T05:56:49.412Z,100893.78
2023-03-17T05:59:16.813Z,100897.94
2023-03-17T06:01:43.303Z,100894.13
2023-03-17T06:04:09.993Z,100892.47
2023-03-17T06:06:36.541Z,100899.41
2023-03-17T06:09:03.055Z,100909.66
2023-03-17T06:11:29.556Z,100907.66
2023-03-17T06:13:56.276Z,100914.28
2023-03-17T06:16:22.916Z,100903.50
2023-03-17T06:18:49.716Z,100903.38
2023-03-17T06:21:16.309Z,100896.09
2023-03-17T06:23:43.492Z,100909.97
2023-03-17T06:26:09.960Z,100908.00
2023-03-17T06:28:36.437Z,100905.34
2023-03-17T06:31:04.706Z,100919.88
2023-03-17T06:33:34.545Z,100909.63
2023-03-17T06:36:01.752Z,100914.59
2023-03-17T06:38:28.385Z,100909.31
2023-03-17T06:40:54.864Z,100914.41
2023-03-17T06:43:22.216Z,100926.31
2023-03-17T06:45:48.700Z,100924.50
2023-03-17T06:48:15.244Z,100933.91
2023-03-17T06:50:41.726Z,100944.66
2023-03-17T06:53:08.260Z,100933.56
2023-03-17T06:55:34.797Z,100932.91
2023-03-17T06:58:02.976Z,100929.13
2023-03-17T07:00:30.336Z,100927.63
2023-03-17T07:02:57.769Z,100934.06
2023-03-17T07:05:24.261Z,100937.19
2023-03-17T07:07:50.783Z,100924.47
2023-03-17T07:10:18.070Z,100939.47
2023-03-17T07:12:45.107Z,100919.63
2023-03-17T07:15:12.523Z,100912.31
2023-03-17T07:17:39.095Z,100914.47
2023-03-17T07:20:06.504Z,100914.28
2023-03-17T07:22:33.191Z,100915.25
2023-03-17T07:24:59.896Z,100914.09
2023-03-17T07:27:26.610Z,100921.34
2023-03-17T07:29:53.184Z,100917.03
2023-03-17T07:32:20.057Z,100915.69
2023-03-17T07:34:46.615Z,100905.75
2023-03-17T07:37:13.237Z,100916.28
2023-03-17T07:39:40.026Z,100919.88
2023-03-17T07:42:06.936Z,100931.41
2023-03-17T07:44:33.740Z,100927.25
2023-03-17T07:47:00.398Z,100918.13
2023-03-17T07:49:40.454Z,100929.03
2023-03-17T07:52:08.696Z,100927.53
2023-03-17T07:54:36.281Z,100916.06
2023-03-17T07:57:03.499Z,100917.97
2023-03-17T07:59:30.263Z,100920.09
2023-03-17T08:01:59.676Z,100923.22
2023-03-17T08:04:27.529Z,100927.47
2023-03-17T08:06:54.543Z,100920.28
2023-03-17T08:09:24.539Z,100906.47
2023-03-17T08:11:51.098Z,100910.34
2023-03-17T08:14:17.604Z,100908.38
2023-03-17T08:16:44.295Z,100905.69
2023-03-17T08:19:11.139Z,100903.75
2023-03-17T08:21:37.711Z,100909.63
2023-03-17T08:24:05.306Z,100911.91
2023-03-17T08:26:32.236Z,100898.00
2023-03-17T08:28:58.990Z,100894.88
2023-03-17T08:31:25.817Z,100893.19
2023-03-17T08:33:56.590Z,100895.97
2023-03-17T08:36:23.904Z,100886.97
2023-03-17T08:38:50.651Z,100897.81
2023-03-17T08:41:20.308Z,100889.81
2023-03-17T08:43:47.871Z,100905.16
2023-03-17T08:46:27.180Z,100910.09
2023-03-17T08:48:56.265Z,100909.97
2023-03-17T08:51:26.603Z,100907.34
2023-03-17T08:53:54.909Z,100898.75
2023-03-17T08:56:22.052Z,100912.88
2023-03-17T08:58:49.236Z,100903.19
2023-03-17T09:01:17.006Z,100911.84
2023-03-17T09:03:43.961Z,100905.09
2023-03-17T09:06:12.359Z,100909.66
2023-03-17T09:08:44.429Z,100900.66
2023-03-17T09:11:13.758Z,100891.50
2023-03-17T09:13:41.390Z,100897.69
2023-03-17T09:16:08.886Z,100900.66
2023-03-17T09:18:36.172Z,100888.44
2023-03-17T09:21:04.059Z,100881.59
2023-03-17T09:23:31.425Z,100894.53
2023-03-17T09:25:58.067Z,100905.97
2023-03-17T09:28:24.822Z,100905.53
2023-03-17T09:30:51.671Z,100897.56
2023-03-17T09:33:18.664Z,100908.03
2023-03-17T09:35:45.372Z,100913.13
2023-03-17T09:38:12.775Z,100906.53
2023-03-17T09:40:48.066Z,100912.09
2023-03-17T09:43:29.271Z,100913.13
2023-03-17T09:45:56.163Z,100909.28
2023-03-17T09:48:28.395Z,100915.72
2023-03-17T09:51:04.826Z,100913.13
2023-03-17T09:53:46.197Z,100921.19
2023-03-17T09:56:15.592Z,100912.41
2023-03-17T09:58:52.794Z,100924.94
2023-03-17T10:01:19.683Z,100917.97
2023-03-17T10:03:47.397Z,100913.03
2023-03-17T10:06:44.876Z,100917.53
2023-03-17T10:09:37.368Z,100908.31
2023-03-17T10:12:11.044Z,100916.31
2023-03-17T10:15:01.888Z,100927.41
2023-03-17T10:17:39.352Z,100925.75
2023-03-17T10:20:16.577Z,100924.50
2023-03-17T10:22:48.188Z,100930.25
2023-03-17T10:25:24.344Z,100932.72
2023-03-17T10:28:03.439Z,100940.25
2023-03-17T10:30:33.721Z,100952.19
2023-03-17T10:33:03.342Z,100945.50
2023-03-17T10:35:35.966Z,100941.41
2023-03-17T10:38:22.895Z,100939.97
2023-03-17T10:41:02.370Z,100949.19
2023-03-17T10:43:35.591Z,100956.22
2023-03-17T10:46:05.605Z,100962.97
2023-03-17T10:48:37.318Z,100970.81
2023-03-17T10:51:11.297Z,100962.16
2023-03-17T10:53:44.799Z,100958.22
2023-03-17T10:56:23.478Z,100946.22
2023-03-17T10:58:52.542Z,100941.13
2023-03-17T11:01:29.556Z,100943.88
2023-03-17T11:03:56.361Z,100937.78
2023-03-17T11:06:39.159Z,100936.63
2023-03-17T11:09:09.590Z,100921.38
2023-03-17T11:11:47.312Z,100922.38
2023-03-17T11:14:19.084Z,100917.63
2023-03-17T11:17:00.978Z,100914.22
2023-03-17T11:19:42.833Z,100910.91
2023-03-17T11:22:38.553Z,100911.16
2023-03-17T11:25:23.530Z,100917.50
2023-03-17T11:28:02.824Z,100915.56
2023-03-17T11:30:58.638Z,100904.00
2023-03-17T11:33:47.065Z,100901.13
2023-03-17T11:36:37.699Z,100888.03
2023-03-17T11:39:17.443Z,100888.09
2023-03-17T11:41:55.763Z,100895.13
2023-03-17T11:44:40.378Z,100906.34
2023-03-17T11:47:38.596Z,100892.53
2023-03-17T11:50:35.257Z,100905.94
2023-03-17T11:53:17.103Z,100898.97
2023-03-17T11:55:54.436Z,100896.59
2023-03-17T11:58:31.972Z,100891.16
2023-03-17T12:01:00.807Z,100892.63
2023-03-17T12:03:34.224Z,100904.69
2023-03-17T12:06:07.872Z,100903.50
2023-03-17T12:08:37.796Z,100903.41
2023-03-17T12:11:09.227Z,100897.84
2023-03-17T12:13:46.159Z,100894.63
2023-03-17T12:16:21.350Z,100892.88
2023-03-17T12:19:06.376Z,100875.88
2023-03-17T12:21:36.881Z,100875.00
2023-03-17T12:24:15.178Z,100862.22
2023-03-17T12:26:59.463Z,100863.72
2023-03-17T12:29:57.217Z,100856.75
2023-03-17T12:32:42.703Z,100856.03
2023-03-17T12:35:34.879Z,100850.31
2023-03-17T12:38:09.084Z,100842.28
2023-03-17T12:40:40.692Z,100846.06
2023-03-17T12:43:37.885Z,100839.47
2023-03-17T12:46:33.983Z,100837.00
2023-03-17T12:49:15.273Z,100844.41
2023-03-17T12:52:09.126Z,100845.56
2023-03-17T12:54:39.440Z,100846.03
2023-03-17T12:57:42.707Z,100847.66
2023-03-17T13:00:27.086Z,100847.56
2023-03-17T13:03:11.586Z,100847.94
2023-03-17T13:05:38.280Z,100838.16
2023-03-17T13:08:10.800Z,100839.13
2023-03-17T13:10:51.061Z,100849.06
2023-03-17T13:13:44.549Z,100856.66
2023-03-17T13:16:33.548Z,100854.06
2023-03-17T13:19:31.198Z,100859.63
2023-03-17T13:22:01.024Z,100866.06
2023-03-17T13:24:47.951Z,100856.03
2023-03-17T13:27:34.701Z,100860.09
2023-03-17T13:30:24.234Z,100854.06
2023-03-17T13:33:09.941Z,100857.19
2023-03-17T13:35:47.720Z,100855.91
2023-03-17T13:38:32.640Z,100849.72
2023-03-17T13:41:08.128Z,100848.56
2023-03-17T13:44:03.121Z,100853.13
2023-03-17T13:46:39.944Z,100846.47
2023-03-17T13:49:15.565Z,100847.34
2023-03-17T13:51:52.741Z,100842.88
2023-03-17T13:54:28.743Z,100835.56
2023-03-17T13:57:14.890Z,100823.91
2023-03-17T13:59:50.429Z,100823.09
2023-03-17T14:02:23.779Z,100828.56
2023-03-17T14:04:57.545Z,100829.13
2023-03-17T14:07:28.215Z,100824.75
2023-03-17T14:10:04.104Z,100831.56
2023-03-17T14:12:46.851Z,100836.75
2023-03-17T14:15:40.632Z,100832.63
2023-03-17T14:18:16.468Z,100842.91
2023-03-17T14:20:58.176Z,100840.53
2023-03-17T14:23:25.893Z,100837.22
2023-03-17T14:25:55.951Z,100829.09
2023-03-17T14:28:34.281Z,100820.03
2023-03-17T14:31:07.247Z,100817.63
2023-03-17T14:33:39.704Z,100823.03
2023-03-17T14:36:09.160Z,100811.66
2023-03-17T14:38:37.619Z,100810.16
2023-03-17T14:41:14.263Z,100806.31
2023-03-17T14:43:42.621Z,100807.59
2023-03-17T14:46:27.782Z,100793.72
2023-03-17T14:49:14.379Z,100800.47
2023-03-17T14:51:42.030Z,100804.19
2023-03-17T14:54:19.103Z,100792.63
2023-03-17T14:57:14.679Z,100788.94
2023-03-17T14:59:43.219Z,100780.66
2023-03-17T15:02:23.142Z,100779.81
2023-03-17T15:04:58.763Z,100790.19
2023-03-17T15:07:40.370Z,100795.75
2023-03-17T15:10:24.631Z,100794.16
2023-03-17T15:13:00.967Z,100789.84
2023-03-17T15:15:32.592Z,100792.00
2023-03-17T15:18:03.302Z,100796.53
2023-03-17T15:20:35.235Z,100782.50
2023-03-17T15:23:14.589Z,100780.84
2023-03-17T15:25:47.382Z,100773.09
2023-03-17T15:28:19.134Z,100773.16
2023-03-17T15:30:48.728Z,100771.50
2023-03-17T15:33:34.167Z,100772.44
2023-03-17T15:36:01.630Z,100771.38
2023-03-17T15:38:29.085Z,100767.03
2023-03-17T15:40:56.125Z,100755.53
2023-03-17T15:43:22.807Z,100758.34
2023-03-17T15:46:01.488Z,100760.72
2023-03-17T15:48:31.416Z,100761.16
2023-03-17T15:51:00.201Z,100769.81
2023-03-17T15:53:26.936Z,100754.19
2023-03-17T15:55:53.490Z,100758.16
2023-03-17T15:58:20.389Z,100746.72
2023-03-17T16:00:54.596Z,100740.88
2023-03-17T16:03:26.975Z,100750.94
2023-03-17T16:05:53.604Z,100743.81
2023-03-17T16:08:20.179Z,100746.75
2023-03-17T16:10:46.962Z,100754.47
2023-03-17T16:13:14.031Z,100753.41
2023-03-17T16:15:42.812Z,100752.13
2023-03-17T16:18:16.792Z,100757.50
2023-03-17T16:20:46.336Z,100759.69
2023-03-17T16:23:22.014Z,100765.50
2023-03-17T16:25:49.336Z,100754.88
2023-03-17T16:28:34.065Z,100767.34
2023-03-17T16:31:01.997Z,100764.28
2023-03-17T16:33:32.272Z,100772.06
2023-03-17T16:36:00.428Z,100768.75
2023-03-17T16:38:29.520Z,100765.41
2023-03-17T16:41:01.584Z,100772.44
2023-03-17T16:43:35.772Z,100767.28
2023-03-17T16:46:03.376Z,100768.38
2023-03-17T16:48:31.160Z,100772.19
2023-03-17T16:50:58.180Z,100777.00
2023-03-17T16:53:25.653Z,100779.19
2023-03-17T16:55:54.110Z,100784.53
2023-03-17T16:58:26.307Z,100782.38
2023-03-17T17:00:57.455Z,100782.66
2023-03-17T17:03:24.329Z,100796.78
2023-03-17T17:05:51.140Z,100792.72
2023-03-17T17:08:17.724Z,100786.00
2023-03-17T17:10:44.210Z,100800.28
2023-03-17T17:13:12.323Z,100791.78
2023-03-17T17:15:40.093Z,100792.81
2023-03-17T17:18:18.770Z,100799.66
2023-03-17T17:20:46.043Z,100786.13
2023-03-17T17:23:18.672Z,100782.94
2023-03-17T17:25:45.543Z,100783.19
2023-03-17T17:28:15.758Z,100790.09
2023-03-17T17:30:45.191Z,100799.19
2023-03-17T17:33:12.569Z,100788.78
2023-03-17T17:35:39.395Z,100798.94
2023-03-17T17:38:15.474Z,100810.69
2023-03-17T17:40:42.140Z,100807.19
2023-03-17T17:43:09.838Z,100805.34
2023-03-17T17:45:36.831Z,100802.66
2023-03-17T17:48:04.008Z,100807.22
2023-03-17T17:50:31.361Z,100798.59
2023-03-17T17:53:04.790Z,100803.13
2023-03-17T17:55:33.682Z,100792.06
2023-03-17T17:58:01.156Z,100803.81
2023-03-17T18:00:28.282Z,100788.00
2023-03-17T18:02:54.849Z,100795.66
2023-03-17T18:05:21.918Z,100792.38
2023-03-17T18:07:48.646Z,100787.25
2023-03-17T18:10:22.500Z,100784.41
2023-03-17T18:12:49.076Z,100786.69
2023-03-17T18:15:16.076Z,100791.84
2023-03-17T18:17:43.531Z,100794.34
2023-03-17T18:20:13.669Z,100787.56
2023-03-17T18:22:40.887Z,100794.78
2023-03-17T18:25:10.166Z,100796.81
2023-03-17T18:27:38.332Z,100795.19
2023-03-17T18:30:11.667Z,100792.31
2023-03-17T18:32:38.960Z,100793.53
2023-03-17T18:35:10.479Z,100804.41
2023-03-17T18:37:37.253Z,100811.00
2023-03-17T18:40:14.208Z,100808.94
2023-03-17T18:42:42.891Z,100801.34
2023-03-17T18:45:11.622Z,100799.91
2023-03-17T18:47:39.138Z,100793.75
2023-03-17T18:50:08.070Z,100794.38
2023-03-17T18:52:36.536Z,100797.22
2023-03-17T18:55:04.270Z,100797.22
2023-03-17T18:57:31.863Z,100802.16
2023-03-17T18:59:59.076Z,100796.81
2023-03-17T19:02:26.177Z,100791.66
2023-03-17T19:04:52.912Z,100798.03
2023-03-17T19:07:19.384Z,100801.91
2023-03-17T19:09:45.933Z,100798.00
2023-03-17T19:12:12.460Z,100801.72
2023-03-17T19:14:40.394Z,100803.78
2023-03-17T19:17:07.731Z,100798.03
2023-03-17T19:19:35.722Z,100788.78
2023-03-17T19:22:03.968Z,100794.34
2023-03-17T19:24:32.112Z,100798.44
2023-03-17T19:26:58.707Z,100794.56
2023-03-17T19:29:26.859Z,100808.69
2023-03-17T19:31:53.854Z,100800.50
2023-03-17T19:34:20.559Z,100800.09
2023-03-17T19:36:47.118Z,100790.88
2023-03-17T19:39:14.662Z,100791.47
2023-03-17T19:41:41.192Z,100785.09
2023-03-17T19:44:07.761Z,100790.66
2023-03-17T19:46:37.399Z,100786.53
2023-03-17T19:49:04.921Z,100807.88
2023-03-17T19:51:32.852Z,100803.31
2023-03-17T19:54:00.131Z,100808.06
2023-03-17T19:56:27.935Z,100794.75
2023-03-17T19:58:55.409Z,100792.28
2023-03-17T20:01:22.970Z,100802.94
2023-03-17T20:03:49.773Z,100811.38
2023-03-17T20:06:16.837Z,100799.25
2023-03-17T20:08:44.132Z,100808.31
2023-03-17T20:11:12.492Z,100814.69
2023-03-17T20:13:39.291Z,100810.59
2023-03-17T20:16:07.775Z,100822.28
2023-03-17T20:18:34.660Z,100822.28
2023-03-17T20:21:05.331Z,100821.88
2023-03-17T20:23:32.580Z,100813.44
2023-03-17T20:25:59.144Z,100816.94
2023-03-17T20:28:25.668Z,100810.75
2023-03-17T20:30:52.520Z,100820.81
2023-03-17T20:33:19.218Z,100824.31
2023-03-17T20:35:47.477Z,100826.16
2023-03-17T20:38:15.009Z,100836.00
2023-03-17T20:40:41.999Z,100829.66
2023-03-17T20:43:09.498Z,100835.78
2023-03-17T20:45:37.021Z,100828.00
2023-03-17T20:48:06.003Z,100840.31
2023-03-17T20:50:34.366Z,100837.03
2023-03-17T20:53:01.647Z,100843.81
2023-03-17T20:55:28.917Z,100839.53
2023-03-17T20:57:58.672Z,100846.50
2023-03-17T21:00:26.188Z,100848.34
2023-03-17T21:02:53.174Z,100851.63
2023-03-17T21:05:25.570Z,100858.63
2023-03-17T21:07:52.713Z,100857.16
2023-03-17T21:10:19.870Z,100860.47
2023-03-17T21:12:46.527Z,100864.16
2023-03-17T21:15:13.892Z,100871.56
2023-03-17T21:17:42.348Z,100866.63
2023-03-17T21:20:12.312Z,100862.75
2023-03-17T21:22:39.903Z,100874.22
2023-03-17T21:25:08.619Z,100881.19
2023-03-17T21:27:37.707Z,100875.88
2023-03-17T21:30:07.014Z,100876.91
2023-03-17T21:32:33.671Z,100887.38
2023-03-17T21:35:00.325Z,100882.44
2023-03-17T21:37:27.329Z,100879.38
2023-03-17T21:39:53.835Z,100875.66
2023-03-17T21:42:20.423Z,100875.84
2023-03-17T21:44:48.315Z,100878.94
2023-03-17T21:47:15.484Z,100878.53
2023-03-17T21:49:41.979Z,100883.66
2023-03-17T21:52:09.521Z,100896.81
2023-03-17T21:54:37.084Z,100893.72
2023-03-17T21:57:04.491Z,100887.97
2023-03-17T21:59:34.235Z,100894.75
2023-03-17T22:02:00.816Z,100893.31
2023-03-17T22:04:28.526Z,100892.06
2023-03-17T22:06:55.954Z,100884.25
2023-03-17T22:09:22.515Z,100885.91
2023-03-17T22:11:49.782Z,100884.66
2023-03-17T22:14:19.967Z,100888.34
2023-03-17T22:16:47.818Z,100887.34
2023-03-17T22:19:14.764Z,100886.91
2023-03-17T22:21:42.136Z,100883.84
2023-03-17T22:24:09.200Z,100885.03
2023-03-17T22:26:35.776Z,100904.34
2023-03-17T22:29:02.326Z,100905.97
2023-03-17T22:31:29.724Z,100915.59
2023-03-17T22:33:59.099Z,100911.91
2023-03-17T22:36:26.246Z,100917.00
2023-03-17T22:38:53.414Z,100914.97
2023-03-17T22:41:22.534Z,100918.44
2023-03-17T22:43:49.316Z,100926.44
2023-03-17T22:46:16.756Z,100924.38
2023-03-17T22:48:44.896Z,100923.13
2023-03-17T22:51:14.105Z,100914.91
2023-03-17T22:53:40.960Z,100920.66
2023-03-17T22:56:08.844Z,100923.94
2023-03-17T22:58:36.033Z,100931.94
2023-03-17T23:01:03.623Z,100918.34
2023-03-17T23:03:30.566Z,100922.84
2023-03-17T23:06:00.158Z,100925.50
2023-03-17T23:08:29.351Z,100922.22
2023-03-17T23:10:56.769Z,100922.81
2023-03-17T23:13:24.199Z,100932.47
2023-03-17T23:15:50.800Z,100948.00
2023-03-17T23:18:17.449Z,100936.72
2023-03-17T23:20:43.938Z,100931.00
2023-03-17T23:23:12.192Z,100925.81
2023-03-17T23:25:39.006Z,100934.59
2023-03-17T23:28:06.943Z,100937.88
2023-03-17T23:30:35.429Z,100939.47
2023-03-17T23:33:02.506Z,100935.78
2023-03-17T23:35:29.103Z,100938.41
2023-03-17T23:37:55.644Z,100929.78
2023-03-17T23:40:23.966Z,100927.31
2023-03-17T23:42:50.680Z,100915.63
2023-03-17T23:45:18.348Z,100911.31
2023-03-17T23:47:46.706Z,100919.47
2023-03-17T23:50:14.501Z,100925.97
2023-03-17T23:52:42.472Z,100925.88
2023-03-17T23:55:11.718Z,100932.75
2023-03-17T23:57:38.976Z,100932.25
